Time;durP1;ratioP1;P1;durP2;ratioP2;P2;SDS_P1;SDS_P2;PMS_P1;PMS_P2;Temp;Humidity;BMP_temperature;BMP_pressure;BME280_temperature;BME280_humidity;BME280_pressure;Samples;Min_cycle;Max_cycle;Signal;HPM_P1;HPM_P2
2022/07/19 00:00:09;;;;;;;4.43;2.75;;;;;;;25.10;35.68;100190.00;5091870;28;20048;-70
2022/07/19 00:02:37;;;;;;;3.92;2.60;;;;;;;25.11;35.43;100188.97;5090871;28;20117;-68
2022/07/19 00:05:06;;;;;;;3.80;2.63;;;;;;;25.10;35.32;100183.75;5092124;28;20048;-68
2022/07/19 00:07:32;;;;;;;3.05;2.75;;;;;;;25.08;35.82;100185.78;5090781;28;20052;-68
2022/07/19 00:09:59;;;;;;;4.68;2.65;;;;;;;25.05;35.45;100178.91;5091667;28;20056;-68
2022/07/19 00:12:26;;;;;;;8.20;3.50;;;;;;;25.04;35.71;100181.75;5091922;28;20055;-68
2022/07/19 00:14:52;;;;;;;4.18;3.05;;;;;;;25.02;35.54;100181.09;5090638;28;20125;-68
2022/07/19 00:17:19;;;;;;;3.15;2.70;;;;;;;25.00;35.55;100170.47;5091743;28;20496;-69
2022/07/19 00:19:46;;;;;;;4.30;3.17;;;;;;;24.97;35.45;100179.75;5091614;28;20074;-69
2022/07/19 00:22:13;;;;;;;4.93;2.78;;;;;;;24.95;35.50;100178.25;5091796;28;20044;-69
2022/07/19 00:24:39;;;;;;;3.90;2.90;;;;;;;24.95;35.50;100178.25;5091825;28;20063;-69
2022/07/19 00:27:06;;;;;;;3.25;2.53;;;;;;;24.94;35.38;100173.88;5091553;28;20047;-69
2022/07/19 00:29:33;;;;;;;4.22;3.33;;;;;;;24.93;36.04;100169.50;5089622;28;20065;-68
2022/07/19 00:31:59;;;;;;;4.35;3.00;;;;;;;24.91;36.32;100175.06;5090397;28;20048;-70
2022/07/19 00:34:26;;;;;;;4.60;2.95;;;;;;;24.91;36.32;100172.38;5090390;28;20059;-69
2022/07/19 00:36:52;;;;;;;4.18;3.50;;;;;;;24.91;35.84;100174.22;5090063;28;20052;-69
2022/07/19 00:39:19;;;;;;;5.00;3.25;;;;;;;24.91;35.52;100168.81;5091037;28;20048;-68
2022/07/19 00:41:45;;;;;;;2.88;2.58;;;;;;;24.92;35.64;100174.03;5091277;28;20048;-69
2022/07/19 00:44:12;;;;;;;4.35;2.80;;;;;;;24.91;35.52;100169.69;5091141;28;20109;-68
2022/07/19 00:46:39;;;;;;;4.72;3.03;;;;;;;24.92;35.45;100174.03;5089968;28;20051;-69
2022/07/19 00:49:06;;;;;;;6.18;2.85;;;;;;;24.92;35.39;100175.88;5091146;28;20131;-69
2022/07/19 00:51:39;;;;;;;3.72;2.80;;;;;;;24.90;35.26;100168.00;5090167;28;20048;-68
2022/07/19 00:54:08;;;;;;;3.00;2.70;;;;;;;24.93;35.50;100167.63;5091157;28;20052;-68
2022/07/19 00:56:34;;;;;;;3.85;2.88;;;;;;;24.95;35.44;100168.31;5089609;28;20480;-68
2022/07/19 00:59:03;;;;;;;3.90;2.75;;;;;;;24.96;35.41;100170.00;5090998;28;20573;-68
2022/07/19 01:01:30;;;;;;;3.10;2.60;;;;;;;24.98;35.29;100162.56;5089990;28;20677;-68
2022/07/19 01:03:58;;;;;;;6.80;2.90;;;;;;;25.00;35.18;100164.28;5089885;28;20055;-68
2022/07/19 01:06:26;;;;;;;5.03;2.75;;;;;;;25.01;34.84;100164.09;5090890;28;20561;-68
2022/07/19 01:08:52;;;;;;;3.20;2.58;;;;;;;25.02;35.25;100163.09;5089080;28;20056;-70
2022/07/19 01:11:19;;;;;;;5.18;2.90;;;;;;;25.03;35.28;100163.91;5091485;28;20048;-69
2022/07/19 01:13:46;;;;;;;3.20;2.70;;;;;;;25.04;34.94;100165.59;5089728;28;20052;-69
2022/07/19 01:16:13;;;;;;;5.68;2.83;;;;;;;25.05;35.05;100159.19;5089761;28;20048;-69
2022/07/19 01:18:40;;;;;;;2.95;2.30;;;;;;;25.05;34.84;100159.19;5089205;28;20106;-69
2022/07/19 01:21:08;;;;;;;4.32;2.50;;;;;;;25.05;35.25;100159.19;5089272;28;20048;-70
2022/07/19 01:23:34;;;;;;;3.08;2.25;;;;;;;25.04;35.48;100158.34;5090588;28;20097;-68
2022/07/19 01:26:01;;;;;;;5.43;2.63;;;;;;;25.05;35.31;100159.19;5090876;28;20458;-69
2022/07/19 01:28:27;;;;;;;5.25;2.47;;;;;;;25.05;35.36;100162.75;5089315;28;20097;-69
2022/07/19 01:30:54;;;;;;;2.58;2.08;;;;;;;25.05;35.05;100159.19;5090393;28;20204;-69
2022/07/19 01:33:21;;;;;;;4.90;2.30;;;;;;;25.04;34.97;100158.34;5090569;28;20475;-70
2022/07/19 01:35:47;;;;;;;2.53;2.33;;;;;;;25.02;34.51;100149.63;5090486;28;20093;-69
2022/07/19 01:38:14;;;;;;;2.72;2.28;;;;;;;25.02;35.12;100163.09;5090214;28;20051;-68
2022/07/19 01:40:40;;;;;;;3.05;2.33;;;;;;;25.00;35.21;100151.63;5090466;28;20051;-67
2022/07/19 01:43:07;;;;;;;4.90;2.72;;;;;;;24.99;36.20;100158.03;5090589;28;20052;-69
2022/07/19 01:45:34;;;;;;;4.85;2.60;;;;;;;24.97;35.97;100158.19;5092527;28;20055;-68
2022/07/19 01:48:01;;;;;;;2.47;2.15;;;;;;;24.96;35.32;100158.38;5095878;28;20484;-68
2022/07/19 01:50:27;;;;;;;4.28;2.20;;;;;;;24.93;36.28;100162.25;5095561;28;20518;-69
2022/07/19 01:52:54;;;;;;;9.93;2.67;;;;;;;24.91;36.53;100158.06;5097293;28;20129;-68
2022/07/19 01:55:21;;;;;;;2.28;2.05;;;;;;;24.90;35.95;100156.38;5097295;28;20067;-68
2022/07/19 01:57:49;;;;;;;3.30;2.10;;;;;;;24.88;36.86;100153.84;5095652;28;20481;-68
2022/07/19 02:00:16;;;;;;;4.00;2.33;;;;;;;24.86;35.87;100158.59;5096705;28;20051;-69
2022/07/19 02:02:43;;;;;;;5.38;2.22;;;;;;;24.81;35.92;100156.38;5095682;28;20059;-68
2022/07/19 02:05:10;;;;;;;2.38;1.92;;;;;;;24.79;36.44;100161.09;5095800;28;20080;-68
2022/07/19 02:07:38;;;;;;;4.03;2.17;;;;;;;24.75;36.63;100154.38;5097137;28;20075;-68
2022/07/19 02:10:05;;;;;;;3.75;2.10;;;;;;;24.72;36.44;100165.47;5096574;28;20138;-69
2022/07/19 02:12:32;;;;;;;4.03;2.15;;;;;;;24.69;35.65;100163.97;5095788;28;20097;-69
2022/07/19 02:14:59;;;;;;;2.97;1.98;;;;;;;24.66;35.57;100161.59;5095763;28;20044;-68
2022/07/19 02:17:25;;;;;;;3.10;1.98;;;;;;;24.64;36.76;100173.56;5097049;28;20048;-68
2022/07/19 02:19:52;;;;;;;2.28;2.08;;;;;;;24.60;36.06;100168.50;5095440;28;20098;-68
2022/07/19 02:22:18;;;;;;;3.10;2.42;;;;;;;24.56;36.19;100174.41;5097177;28;20109;-68
2022/07/19 02:24:45;;;;;;;3.35;2.35;;;;;;;24.51;36.50;100174.91;5096777;28;20052;-68
2022/07/19 02:27:12;;;;;;;2.40;1.92;;;;;;;24.48;36.91;100171.72;5096871;28;20626;-68
2022/07/19 02:29:39;;;;;;;3.25;1.90;;;;;;;24.43;36.68;100167.69;5094916;28;20138;-68
2022/07/19 02:32:06;;;;;;;4.32;2.30;;;;;;;24.40;36.57;100167.19;5096727;28;20044;-68
2022/07/19 02:34:34;;;;;;;6.82;2.20;;;;;;;24.36;37.24;100171.22;5096734;28;20048;-68
2022/07/19 02:37:01;;;;;;;5.28;2.42;;;;;;;24.33;36.63;100164.31;5096776;28;20056;-69
2022/07/19 02:39:28;;;;;;;2.60;2.10;;;;;;;24.28;37.03;100158.59;5096673;28;20056;-67
2022/07/19 02:41:54;;;;;;;3.05;2.00;;;;;;;24.24;37.34;100160.78;5096849;28;20116;-69
2022/07/19 02:44:21;;;;;;;3.08;2.00;;;;;;;24.22;37.42;100159.28;5096988;28;20052;-68
2022/07/19 02:46:48;;;;;;;4.18;2.00;;;;;;;24.18;37.36;100159.59;5096662;28;20449;-68
2022/07/19 02:49:14;;;;;;;2.72;2.05;;;;;;;24.15;37.19;100164.47;5096234;28;20052;-69
2022/07/19 02:51:41;;;;;;;4.38;2.17;;;;;;;24.12;37.30;100157.59;5095399;28;20093;-68
2022/07/19 02:54:07;;;;;;;2.38;1.95;;;;;;;24.08;36.81;100151.66;5095390;28;20120;-69
2022/07/19 02:56:36;;;;;;;5.35;1.95;;;;;;;24.05;37.87;100153.84;5095791;28;20056;-68
2022/07/19 02:59:04;;;;;;;2.00;1.75;;;;;;;24.02;37.82;100157.72;5092480;28;20059;-69
2022/07/19 03:01:31;;;;;;;6.60;2.20;;;;;;;24.00;37.58;100156.19;5093181;28;20550;-69
2022/07/19 03:03:59;;;;;;;2.58;2.10;;;;;;;23.96;37.30;100150.31;5093379;28;20083;-68
2022/07/19 03:06:27;;;;;;;4.50;2.10;;;;;;;23.93;38.19;100147.97;5093356;28;20127;-68
2022/07/19 03:08:53;;;;;;;9.85;2.20;;;;;;;23.90;37.63;100156.34;5092890;28;20761;-68
2022/07/19 03:11:21;;;;;;;3.85;2.00;;;;;;;23.87;37.80;100152.16;5093092;28;20066;-68
2022/07/19 03:13:48;;;;;;;3.08;1.95;;;;;;;23.85;37.88;100156.81;5091841;28;20408;-68
2022/07/19 03:16:15;;;;;;;2.67;1.98;;;;;;;23.82;37.76;100154.50;5093249;28;20667;-68
2022/07/19 03:18:41;;;;;;;2.42;1.90;;;;;;;23.79;38.13;100149.44;5091740;28;20569;-68
2022/07/19 03:21:08;;;;;;;2.65;2.00;;;;;;;23.76;38.14;100153.31;5091514;28;20471;-68
2022/07/19 03:23:36;;;;;;;3.22;2.00;;;;;;;23.74;38.41;100152.59;5092548;28;20442;-68
2022/07/19 03:26:04;;;;;;;3.50;2.22;;;;;;;23.73;38.40;100150.94;5092757;28;20457;-68
2022/07/19 03:28:31;;;;;;;2.03;1.75;;;;;;;23.71;38.33;100158.34;5091156;28;20488;-68
2022/07/19 03:30:58;;;;;;;2.92;2.10;;;;;;;23.70;38.62;100156.66;5092466;28;20056;-68
2022/07/19 03:33:25;;;;;;;1.95;1.75;;;;;;;23.68;38.32;100158.66;5092890;28;20060;-68
2022/07/19 03:35:52;;;;;;;3.10;2.08;;;;;;;23.68;37.64;100158.66;5091260;28;20059;-69
2022/07/19 03:38:18;;;;;;;4.00;2.20;;;;;;;23.68;37.91;100155.97;5092474;28;20052;-68
2022/07/19 03:40:47;;;;;;;5.40;2.30;;;;;;;23.68;39.06;100161.34;5092488;28;20496;-68
2022/07/19 03:43:15;;;;;;;2.40;1.75;;;;;;;23.69;38.04;100157.63;5091151;28;20051;-68
2022/07/19 03:45:43;;;;;;;4.07;2.22;;;;;;;23.70;38.10;100151.28;5092698;28;20052;-69
2022/07/19 03:48:11;;;;;;;5.78;2.42;;;;;;;23.72;39.28;100160.00;5090827;28;20074;-68
2022/07/19 03:50:38;;;;;;;3.05;2.00;;;;;;;23.72;38.45;100162.69;5092191;28;20100;-68
2022/07/19 03:53:05;;;;;;;3.33;1.85;;;;;;;23.73;38.47;100164.38;5092218;28;20048;-69
2022/07/19 03:55:32;;;;;;;5.10;2.45;;;;;;;23.73;37.92;100156.31;5090833;28;20105;-69
2022/07/19 03:57:59;;;;;;;2.53;1.92;;;;;;;23.73;38.19;100156.31;5090786;28;20090;-68
2022/07/19 04:00:26;;;;;;;2.75;1.80;;;;;;;23.74;38.64;100157.97;5092075;28;20557;-68
2022/07/19 04:02:52;;;;;;;3.50;1.95;;;;;;;23.75;38.99;100156.16;5090865;28;20139;-69
2022/07/19 04:05:19;;;;;;;3.47;2.00;;;;;;;23.77;38.60;100157.66;5092133;28;20138;-68
2022/07/19 04:07:46;;;;;;;3.03;1.90;;;;;;;23.78;38.40;100153.13;5091896;28;20040;-68
2022/07/19 04:10:13;;;;;;;2.05;1.73;;;;;;;23.80;38.58;100160.03;5090271;28;20519;-68
2022/07/19 04:12:39;;;;;;;3.13;1.98;;;;;;;23.81;38.94;100163.56;5092100;28;20056;-69
2022/07/19 04:15:07;;;;;;;4.13;1.73;;;;;;;23.82;39.31;100162.56;5091887;28;20119;-68
2022/07/19 04:17:34;;;;;;;3.20;1.88;;;;;;;23.84;39.09;100160.53;5091901;28;20109;-67
2022/07/19 04:20:00;;;;;;;1.80;1.65;;;;;;;23.85;39.16;100167.56;5091563;28;20048;-69
2022/07/19 04:22:27;;;;;;;4.75;1.98;;;;;;;23.86;39.02;100158.53;5091683;28;20048;-69
2022/07/19 04:24:54;;;;;;;3.85;1.88;;;;;;;23.88;38.71;100164.56;5090399;28;20112;-68
2022/07/19 04:27:21;;;;;;;5.32;2.20;;;;;;;23.91;38.37;100166.09;5091715;28;20054;-68
2022/07/19 04:29:48;;;;;;;4.15;1.70;;;;;;;23.92;39.15;100159.72;5091490;28;20468;-69
2022/07/19 04:32:15;;;;;;;2.58;1.90;;;;;;;23.94;39.24;100160.38;5091993;28;20056;-69
2022/07/19 04:34:46;;;;;;;2.38;1.73;;;;;;;23.96;38.89;100161.06;5091534;28;20052;-68
2022/07/19 04:37:13;;;;;;;2.72;1.77;;;;;;;23.98;39.12;100158.19;5091342;28;20055;-68
2022/07/19 04:39:39;;;;;;;2.55;1.65;;;;;;;23.99;39.03;100158.03;5091339;28;20109;-69
2022/07/19 04:42:06;;;;;;;3.92;1.95;;;;;;;24.01;38.70;100158.72;5090088;28;20125;-68
2022/07/19 04:44:33;;;;;;;5.05;2.00;;;;;;;24.03;38.00;100158.56;5090181;28;20052;-69
2022/07/19 04:46:59;;;;;;;2.38;2.10;;;;;;;24.05;39.08;100160.06;5090029;28;20055;-69
2022/07/19 04:49:26;;;;;;;3.97;1.80;;;;;;;24.08;39.63;100162.41;5089744;28;20052;-69
2022/07/19 04:51:53;;;;;;;2.40;1.55;;;;;;;24.12;39.60;100164.81;5090897;28;20047;-69
2022/07/19 04:54:19;;;;;;;1.52;1.42;;;;;;;24.15;39.31;100164.47;5090034;28;20063;-68
2022/07/19 04:56:46;;;;;;;2.20;1.58;;;;;;;24.19;38.67;100160.47;5091082;28;20055;-68
2022/07/19 04:59:12;;;;;;;5.35;1.80;;;;;;;24.23;38.10;100158.25;5089513;28;20086;-68
2022/07/19 05:01:39;;;;;;;3.38;1.85;;;;;;;24.26;39.40;100156.06;5091083;28;20062;-68
2022/07/19 05:04:06;;;;;;;2.17;1.70;;;;;;;24.30;38.59;100161.97;5090953;28;20048;-69
2022/07/19 05:06:33;;;;;;;3.20;2.00;;;;;;;24.34;39.02;100166.81;5089850;28;20144;-68
2022/07/19 05:08:59;;;;;;;3.50;1.70;;;;;;;24.39;38.59;100160.09;5090911;28;20101;-69
2022/07/19 05:11:26;;;;;;;3.60;1.88;;;;;;;24.43;38.27;100162.31;5090961;28;20052;-69
2022/07/19 05:13:53;;;;;;;2.08;1.65;;;;;;;24.48;37.68;100159.09;5089732;28;20181;-68
2022/07/19 05:16:20;;;;;;;3.15;1.60;;;;;;;24.53;37.83;100150.53;5090955;28;20079;-69
2022/07/19 05:18:46;;;;;;;3.08;1.80;;;;;;;24.57;37.99;100166.16;5090427;28;20048;-74
2022/07/19 05:21:14;;;;;;;3.20;1.60;;;;;;;24.64;37.84;100165.47;5088854;28;20066;-69
2022/07/19 05:23:41;;;;;;;4.68;1.90;;;;;;;24.68;38.22;100164.97;5090401;28;20538;-69
2022/07/19 05:26:08;;;;;;;3.78;1.55;;;;;;;24.75;38.00;100169.66;5089163;28;20044;-69
2022/07/19 05:28:35;;;;;;;2.20;1.65;;;;;;;24.81;38.38;100163.59;5090172;28;20093;-69
2022/07/19 05:31:04;;;;;;;3.22;1.80;;;;;;;24.87;38.30;100160.25;5088963;28;20093;-69
2022/07/19 05:33:31;;;;;;;3.88;1.83;;;;;;;24.92;37.90;100160.56;5090481;28;20048;-69
2022/07/19 05:35:58;;;;;;;3.00;1.75;;;;;;;25.00;37.42;100161.56;5090166;28;20052;-69
2022/07/19 05:38:24;;;;;;;2.55;1.60;;;;;;;25.06;37.90;100156.34;5090282;28;20048;-69
2022/07/19 05:40:51;;;;;;;2.67;1.77;;;;;;;25.13;37.23;100159.19;5090698;28;20093;-69
2022/07/19 05:43:18;;;;;;;4.38;1.80;;;;;;;25.20;36.86;100160.13;5089198;28;20117;-68
2022/07/19 05:45:44;;;;;;;5.82;1.75;;;;;;;25.28;36.99;100164.69;5090412;28;20480;-69
2022/07/19 05:48:11;;;;;;;4.00;2.08;;;;;;;25.36;37.91;100156.56;5088702;28;20134;-69
2022/07/19 05:50:37;;;;;;;4.13;1.75;;;;;;;25.45;36.94;100160.03;5088586;28;20575;-68
2022/07/19 05:53:04;;;;;;;2.13;1.42;;;;;;;25.51;36.36;100153.13;5088848;28;20102;-68
2022/07/19 05:55:31;;;;;;;2.10;1.65;;;;;;;25.59;37.29;100150.41;5090338;28;20507;-69
2022/07/19 05:57:58;;;;;;;2.60;1.50;;;;;;;25.67;36.68;100152.22;5088465;28;20121;-68
2022/07/19 06:00:24;;;;;;;3.53;1.50;;;;;;;25.76;36.52;100159.22;5090151;28;20052;-68
2022/07/19 06:02:51;;;;;;;1.98;1.77;;;;;;;25.84;36.57;100157.50;5090053;28;20056;-69
2022/07/19 06:05:17;;;;;;;4.28;1.70;;;;;;;25.92;36.61;100153.91;5090377;28;20063;-68
2022/07/19 06:07:44;;;;;;;2.85;1.95;;;;;;;26.00;36.23;100152.00;5090347;28;20048;-68
2022/07/19 06:10:10;;;;;;;2.90;1.73;;;;;;;26.08;36.14;100159.19;5088788;28;20040;-68
2022/07/19 06:12:37;;;;;;;2.97;1.65;;;;;;;26.18;36.29;100153.56;5090227;28;20044;-68
2022/07/19 06:15:04;;;;;;;3.17;1.50;;;;;;;26.28;36.18;100158.75;5090086;28;20059;-68
2022/07/19 06:17:34;;;;;;;2.10;1.65;;;;;;;26.37;36.69;100154.97;5090346;28;20067;-69
2022/07/19 06:20:01;;;;;;;3.55;1.65;;;;;;;26.46;36.46;100149.50;5089987;28;20117;-69
2022/07/19 06:22:33;;;;;;;5.93;1.60;;;;;;;26.52;36.20;100155.00;5089330;28;20048;-68
2022/07/19 06:25:00;;;;;;;1.77;1.42;;;;;;;26.61;36.45;100149.53;5089689;28;20048;-68
2022/07/19 06:27:26;;;;;;;2.63;1.58;;;;;;;26.68;36.24;100153.13;5088817;28;20044;-67
2022/07/19 06:29:53;;;;;;;2.30;1.83;;;;;;;26.74;36.22;100149.72;5088348;28;20056;-70
2022/07/19 06:32:20;;;;;;;3.03;1.25;;;;;;;26.80;36.73;100151.66;5090917;28;20098;-69
2022/07/19 06:34:47;;;;;;;2.58;1.52;;;;;;;26.88;35.63;100156.13;5093560;28;20499;-68
2022/07/19 06:37:14;;;;;;;2.85;1.67;;;;;;;26.96;35.94;100146.31;5093974;28;20051;-68
2022/07/19 06:39:41;;;;;;;5.07;1.70;;;;;;;27.01;36.27;100150.13;5092369;28;20075;-68
2022/07/19 06:42:07;;;;;;;3.03;1.50;;;;;;;27.09;36.47;100154.59;5093934;28;20044;-68
2022/07/19 06:44:34;;;;;;;2.55;1.65;;;;;;;27.15;34.92;100151.16;5093400;28;20052;-68
2022/07/19 06:47:00;;;;;;;2.20;1.60;;;;;;;27.22;35.39;100150.41;5093711;28;20047;-68
2022/07/19 06:49:27;;;;;;;3.35;1.60;;;;;;;27.29;35.47;100145.94;5093387;28;20047;-68
2022/07/19 06:51:54;;;;;;;4.38;1.60;;;;;;;27.35;35.44;100141.63;5093467;28;20466;-69
2022/07/19 06:54:20;;;;;;;2.05;1.52;;;;;;;27.43;35.76;100155.00;5093405;28;20397;-68
2022/07/19 06:56:48;;;;;;;2.83;1.52;;;;;;;27.49;35.96;100142.59;5093351;28;20060;-68
2022/07/19 06:59:14;;;;;;;2.10;1.40;;;;;;;27.55;35.64;100158.91;5091944;28;20079;-67
2022/07/19 07:01:41;;;;;;;3.78;1.75;;;;;;;27.61;35.55;100157.34;5093392;28;20488;-69
2022/07/19 07:04:08;;;;;;;3.85;1.85;;;;;;;27.68;35.50;100158.28;5092117;28;20483;-68
2022/07/19 07:06:34;;;;;;;2.47;1.30;;;;;;;27.76;35.39;100151.91;5092071;28;20063;-68
2022/07/19 07:09:02;;;;;;;5.65;1.67;;;;;;;27.84;35.47;100154.47;5092707;28;20048;-68
2022/07/19 07:11:29;;;;;;;4.07;1.65;;;;;;;27.91;36.25;100151.84;5091585;28;20458;-69
2022/07/19 07:13:56;;;;;;;2.22;1.40;;;;;;;28.00;36.28;100149.88;5091995;28;20090;-68
2022/07/19 07:16:23;;;;;;;3.70;1.20;;;;;;;28.08;36.03;100151.59;5093194;28;20052;-69
2022/07/19 07:18:49;;;;;;;3.65;1.70;;;;;;;28.16;36.40;100156.88;5091693;28;20052;-68
2022/07/19 07:21:16;;;;;;;5.07;1.67;;;;;;;28.23;36.80;100157.75;5091478;28;20052;-69
2022/07/19 07:23:43;;;;;;;6.15;1.65;;;;;;;28.30;35.50;100151.59;5092914;28;20043;-69
2022/07/19 07:26:11;;;;;;;3.30;1.60;;;;;;;28.37;35.66;100160.63;5092642;28;20059;-69
2022/07/19 07:28:39;;;;;;;5.45;1.70;;;;;;;28.47;35.97;100153.00;5091698;28;20055;-69
2022/07/19 07:31:05;;;;;;;4.30;1.30;;;;;;;28.55;36.03;100148.47;5092741;28;20060;-69
2022/07/19 07:33:32;;;;;;;3.42;1.58;;;;;;;28.64;36.02;100157.28;5091595;28;20047;-68
2022/07/19 07:35:58;;;;;;;2.42;1.70;;;;;;;28.72;35.73;100154.41;5092820;28;20044;-69
2022/07/19 07:38:25;;;;;;;4.05;1.33;;;;;;;28.80;35.02;100154.25;5090910;28;20056;-69
2022/07/19 07:40:51;;;;;;;1.90;1.58;;;;;;;28.88;35.04;100148.69;5090013;28;20125;-69
2022/07/19 07:43:38;;;;;;;3.45;1.23;;;;;;;29.00;35.53;100154.41;5092389;28;20505;-68
2022/07/19 07:46:05;;;;;;;3.28;1.60;;;;;;;29.09;35.40;100151.53;5092464;28;20105;-68
2022/07/19 07:48:32;;;;;;;3.17;1.40;;;;;;;29.20;36.14;100147.44;5090970;28;20059;-67
2022/07/19 07:50:58;;;;;;;6.75;2.08;;;;;;;29.30;36.40;100147.06;5092193;28;20093;-70
2022/07/19 07:53:45;;;;;;;2.58;1.38;;;;;;;29.41;35.62;100145.63;5092169;28;20109;-70
2022/07/19 07:56:12;;;;;;;2.28;1.48;;;;;;;29.51;35.42;100149.66;5092591;28;20096;-69
2022/07/19 07:58:42;;;;;;;4.85;1.27;;;;;;;29.60;34.97;100150.31;5092085;28;20048;-69
2022/07/19 08:01:09;;;;;;;2.15;1.40;;;;;;;29.69;35.37;100145.53;5092006;28;20052;-69
2022/07/19 08:03:36;;;;;;;2.60;1.80;;;;;;;29.79;34.72;100156.00;5091891;28;20492;-69
2022/07/19 08:06:03;;;;;;;2.38;1.38;;;;;;;29.89;34.91;100153.72;5091090;28;20048;-70
2022/07/19 08:08:29;;;;;;;5.20;1.70;;;;;;;29.99;34.72;100156.03;5090608;28;20048;-69
2022/07/19 08:10:57;;;;;;;1.83;1.42;;;;;;;30.08;33.57;100156.66;5091763;28;20134;-69
2022/07/19 08:13:23;;;;;;;10.60;1.80;;;;;;;30.18;33.54;100150.88;5091770;28;20055;-69
2022/07/19 08:15:50;;;;;;;2.15;1.50;;;;;;;30.27;34.02;100146.91;5090794;28;20051;-69
2022/07/19 08:18:17;;;;;;;3.50;1.30;;;;;;;30.36;34.00;100152.97;5091709;28;20105;-69
2022/07/19 08:20:43;;;;;;;5.20;1.70;;;;;;;30.46;34.11;100152.50;5091820;28;20056;-69
2022/07/19 08:23:10;;;;;;;2.53;1.30;;;;;;;30.57;34.53;100148.31;5091916;28;20085;-69
2022/07/19 08:25:37;;;;;;;6.03;1.95;;;;;;;30.67;33.30;100146.03;5090681;28;20466;-69
2022/07/19 08:28:04;;;;;;;1.80;1.48;;;;;;;30.76;33.05;100143.94;5091492;28;20129;-70
2022/07/19 08:30:31;;;;;;;3.25;1.40;;;;;;;30.88;33.16;100154.19;5091657;28;20051;-69
2022/07/19 08:33:18;;;;;;;3.20;1.60;;;;;;;31.00;32.49;100151.63;5091936;28;20412;-69
2022/07/19 08:35:45;;;;;;;2.95;1.73;;;;;;;31.11;32.92;100153.69;5090541;28;20139;-69
2022/07/19 08:38:19;;;;;;;6.45;1.90;;;;;;;31.22;33.11;100157.63;5091219;28;20392;-70
2022/07/19 08:40:49;;;;;;;6.03;1.60;;;;;;;31.31;32.91;100153.63;5090120;28;20081;-70
2022/07/19 08:43:18;;;;;;;3.15;1.65;;;;;;;31.40;33.49;100146.06;5091237;28;20058;-69
2022/07/19 08:45:44;;;;;;;2.80;1.85;;;;;;;31.51;32.77;100144.53;5090191;28;20101;-70
2022/07/19 08:48:12;;;;;;;6.35;1.90;;;;;;;31.61;32.97;100148.69;5090978;28;20567;-69
2022/07/19 08:50:40;;;;;;;2.97;1.65;;;;;;;31.70;32.44;100141.94;5091433;28;20380;-69
2022/07/19 08:53:07;;;;;;;5.95;1.95;;;;;;;31.80;31.94;100142.28;5091217;28;20492;-69
2022/07/19 08:55:33;;;;;;;3.03;1.48;;;;;;;31.91;32.42;100137.25;5090432;28;20048;-69
2022/07/19 08:58:01;;;;;;;3.47;1.70;;;;;;;32.00;32.11;100138.63;5089828;28;20048;-69
2022/07/19 09:00:31;;;;;;;2.92;1.55;;;;;;;32.11;31.96;100139.81;5091364;28;20048;-69
2022/07/19 09:02:59;;;;;;;4.43;1.50;;;;;;;32.21;31.61;100137.41;5090968;28;20058;-69
2022/07/19 09:05:26;;;;;;;3.47;1.65;;;;;;;32.31;31.26;100133.34;5089740;28;20048;-69
2022/07/19 09:08:04;;;;;;;6.97;1.30;;;;;;;32.42;31.76;100143.53;5090840;28;20063;-69
2022/07/19 09:10:31;;;;;;;2.40;1.55;;;;;;;32.54;31.60;100137.34;5089368;28;20040;-69
2022/07/19 09:13:13;;;;;;;1.70;1.50;;;;;;;32.61;31.73;100133.53;5090923;28;20098;-69
2022/07/19 09:15:49;;;;;;;4.50;1.70;;;;;;;32.75;31.18;100136.91;5087687;28;20397;-68
2022/07/19 09:18:22;;;;;;;4.10;1.50;;;;;;;32.88;31.40;100135.97;5086346;28;20050;-68
2022/07/19 09:20:52;;;;;;;4.03;1.35;;;;;;;33.00;30.84;100138.78;5089167;28;20059;-68
2022/07/19 09:23:19;;;;;;;7.63;1.85;;;;;;;33.11;30.99;100129.00;5070430;28;20117;-69
2022/07/19 09:25:50;;;;;;;3.92;1.98;;;;;;;33.20;30.26;100137.72;5070492;28;20467;-69
2022/07/19 09:28:19;;;;;;;3.75;1.30;;;;;;;33.32;30.52;100128.75;5070445;28;20056;-70
2022/07/19 09:30:48;;;;;;;1.85;1.35;;;;;;;33.42;29.89;100131.78;5070323;28;20060;-69
2022/07/19 09:33:20;;;;;;;1.50;1.40;;;;;;;33.51;29.18;100130.38;5069078;28;20048;-69
2022/07/19 09:35:52;;;;;;;5.90;1.67;;;;;;;33.61;29.14;100124.41;5070719;28;20056;-69
2022/07/19 09:38:30;;;;;;;3.00;1.23;;;;;;;33.69;28.47;100119.66;5070390;28;20052;-69
2022/07/19 09:41:17;;;;;;;8.48;1.52;;;;;;;33.81;29.77;100122.44;5070440;28;20113;-69
2022/07/19 09:43:56;;;;;;;4.28;1.27;;;;;;;33.92;28.01;100122.47;5070170;28;20121;-69
2022/07/19 09:46:28;;;;;;;2.17;1.38;;;;;;;34.04;28.17;100117.00;5070083;28;20044;-69
2022/07/19 09:49:15;;;;;;;3.58;1.50;;;;;;;34.12;27.94;100115.03;5068889;28;20075;-69
2022/07/19 09:51:47;;;;;;;6.22;1.40;;;;;;;34.23;27.65;100116.13;5069189;28;20447;-69
2022/07/19 09:54:17;;;;;;;4.60;1.73;;;;;;;34.34;26.93;100109.81;5070305;28;20052;-69
2022/07/19 09:56:45;;;;;;;2.75;1.33;;;;;;;34.42;27.61;100103.97;5070178;28;20481;-69
2022/07/19 09:59:12;;;;;;;2.92;1.30;;;;;;;34.52;27.00;100110.75;5069701;28;20670;-69
2022/07/19 10:01:42;;;;;;;21.77;1.80;;;;;;;34.61;29.59;100103.91;5069989;28;20060;-69
2022/07/19 10:04:12;;;;;;;5.25;1.50;;;;;;;34.70;27.23;100107.91;5070124;28;20052;-69
2022/07/19 10:06:40;;;;;;;1.75;1.05;;;;;;;34.81;26.58;100099.94;5071055;28;20057;-69
2022/07/19 10:09:10;;;;;;;3.83;1.23;;;;;;;34.88;26.56;100105.25;5073870;28;20053;-69
2022/07/19 10:11:37;;;;;;;2.28;1.30;;;;;;;34.96;27.16;100103.00;5074030;28;20055;-69
2022/07/19 10:14:04;;;;;;;5.07;1.40;;;;;;;35.05;25.88;100105.34;5074130;28;20053;-69
2022/07/19 10:17:00;;;;;;;2.17;1.30;;;;;;;35.09;26.59;100101.88;5073996;28;20084;-69
2022/07/19 10:19:42;;;;;;;2.55;1.00;;;;;;;35.20;25.75;100091.97;5068968;28;20049;-69
2022/07/19 10:22:13;;;;;;;3.22;1.10;;;;;;;35.30;24.45;100105.03;5073931;28;20139;-69
2022/07/19 10:24:52;;;;;;;2.17;1.00;;;;;;;35.34;24.49;100099.91;5073949;28;20056;-69
2022/07/19 10:27:25;;;;;;;1.30;1.20;;;;;;;35.42;24.72;100099.50;5073672;28;20102;-69
2022/07/19 10:29:57;;;;;;;;;;;;;;;35.48;26.78;100095.81;5073802;28;20060;-69
2022/07/19 10:32:29;;;;;;;1.60;1.02;;;;;;;35.63;24.99;100088.91;5073849;28;19985;-69
2022/07/19 10:35:17;;;;;;;1.95;0.93;;;;;;;35.68;25.07;100090.94;5072432;28;20071;-69
2022/07/19 10:37:46;;;;;;;2.22;1.27;;;;;;;35.81;24.35;100082.44;5073693;28;20447;-69
2022/07/19 10:40:13;;;;;;;2.00;1.10;;;;;;;35.89;23.61;100078.44;5073355;28;20053;-69
2022/07/19 10:43:08;;;;;;;2.70;1.35;;;;;;;35.93;23.84;100076.84;5072388;28;20131;-69
2022/07/19 10:45:36;;;;;;;2.83;1.30;;;;;;;36.07;22.98;100071.03;5073620;28;20101;-69
2022/07/19 10:48:05;;;;;;;2.33;1.27;;;;;;;36.17;24.02;100071.19;5071918;28;20044;-69
2022/07/19 10:50:55;;;;;;;3.58;1.15;;;;;;;36.30;23.83;100077.41;5073422;28;20052;-69
2022/07/19 10:53:40;;;;;;;3.42;1.00;;;;;;;36.54;25.24;100072.53;5072128;28;20062;-69
2022/07/19 10:56:28;;;;;;;5.55;1.00;;;;;;;36.85;25.31;100070.19;5073155;28;20056;-69
2022/07/19 10:59:05;;;;;;;2.05;1.00;;;;;;;37.27;23.23;100077.03;5073008;28;20740;-69
2022/07/19 11:01:33;;;;;;;3.30;1.15;;;;;;;37.77;23.26;100073.34;5073132;28;20063;-69
2022/07/19 11:04:23;;;;;;;2.45;1.17;;;;;;;38.30;23.53;100070.72;5073216;28;20053;-70
2022/07/19 11:07:08;;;;;;;1.70;1.20;;;;;;;38.91;22.31;100067.72;5073146;28;20045;-69
2022/07/19 11:09:40;;;;;;;2.10;1.10;;;;;;;39.52;22.73;100066.22;5072927;28;20106;-70
2022/07/19 11:12:25;;;;;;;1.40;0.90;;;;;;;40.04;22.13;100055.19;5072927;28;20048;-70
2022/07/19 11:14:51;;;;;;;1.10;0.90;;;;;;;40.59;20.02;100056.44;5071701;28;20805;-70
2022/07/19 11:17:38;;;;;;;2.20;1.08;;;;;;;41.11;20.22;100056.19;5072184;28;20544;-69
2022/07/19 11:20:11;;;;;;;3.72;1.00;;;;;;;41.53;19.93;100049.28;5072050;28;20488;-70
2022/07/19 11:22:41;;;;;;;1.15;0.80;;;;;;;41.96;19.52;100049.72;5072627;28;20056;-70
2022/07/19 11:25:09;;;;;;;1.20;0.90;;;;;;;42.33;18.72;100042.69;5072336;28;20056;-70
2022/07/19 11:27:40;;;;;;;1.73;0.90;;;;;;;42.65;18.26;100044.00;5071184;28;20041;-69
2022/07/19 11:30:08;;;;;;;2.60;1.02;;;;;;;42.95;18.23;100027.22;5071034;28;20045;-70